Nearby METAR Reports

 

KSJC - San Jose, California, USA
Distance from station: NE 14km
Updated: 04/07/2022 15:53
Mostly cloudy
Mostly cloudy
 Wind from S
Wind: S 6 km/h
Temperature: 16°C
Dew Point: 12°C
Humidity: 77%
Barometer: 1015.2 hPa
Clouds: Mostly cloudy
Visibility: 16 km
Cloud details: Few Clouds 274 m
Partly cloudy 518 m
Mostly cloudy 732 m
2022/07/04 13:53 KSJC 041353Z 18003KT 10SM FEW009 SCT017 BKN024 16/12 A2998 RMK AO2 SLP152 T01560117
KNUQ - Moffett Nas/Mtn, California, USA
Distance from station: N 14km
Updated: 28/06/2022 13:55
NOT Current

 Wind from calm
Wind: Calm
Temperature: 15°C
Dew Point: 12°C
Humidity: 82%
Barometer: 1017.9 hPa
Visibility: 16 km
2022/06/28 11:55 KNUQ 281155Z AUTO 00000KT 10SM 15/12 A3006 RMK AO2
 
KPAO - Palo Alto, California, USA
Distance from station: NNW 23km
Updated: 04/07/2022 16:17
Mostly cloudy
Mostly cloudy
 Wind from varies
Wind: varies 7 km/h
Temperature: 16°C
Dew Point: 11°C
Humidity: 72%
Barometer: 1015.6 hPa
Clouds: Mostly cloudy
Visibility: 16 km
Cloud details: Mostly cloudy 244 m
2022/07/04 14:17 KPAO 041417Z VRB04KT 10SM BKN008 16/11 A2999
KRHV - San Jose/Reid, California, USA
Distance from station: ENE 19km
Updated: 04/07/2022 15:55
Partly cloudy
Partly cloudy
 Wind from calm
Wind: Calm
Temperature: 16°C
Dew Point: 11°C
Humidity: 72%
Barometer: 1015.9 hPa
Clouds: Partly cloudy
Visibility: 16 km
Cloud details: Few Clouds 549 m
Partly cloudy 671 m
2022/07/04 13:55 KRHV 041355Z 00000KT 10SM FEW018 SCT022 16/11 A3000
 
KOAK - Oakland, California, USA
Distance from station: NNW 50km
Updated: 04/07/2022 15:53
Mist, Overcast
Mist, Overcast
 Wind from SE
Wind: SE 9 km/h
Temperature: 15°C
Dew Point: 13°C
Humidity: 88%
Barometer: 1015.6 hPa
Summary: Mist
Clouds: Overcast
Visibility: 10 km
Cloud details: Partly cloudy 244 m
Overcast 366 m
2022/07/04 13:53 KOAK 041353Z 14005KT 6SM BR SCT008 OVC012 15/13 A2999 RMK AO2 SLP155 T01500133
KSQL - San Carlos Airpo, California, USA
Distance from station: NW 34km
Updated: 04/07/2022 15:58
Overcast
Overcast
 Wind from varies
Wind: varies 6 km/h
Temperature: 15°C
Dew Point: 10°C
Humidity: 72%
Barometer: 1015.9 hPa
Clouds: Overcast
Visibility: 16 km
Cloud details: Overcast 427 m
2022/07/04 13:58 KSQL 041358Z VRB03KT 10SM OVC014 15/10 A3000
 
KSFO - San Francisco, California, USA
Distance from station: NW 49km
Updated: 04/07/2022 16:11
Mostly cloudy
Mostly cloudy
 Wind from SSE
Wind: SSE 7 km/h
Temperature: 16°C
Dew Point: 12°C
Humidity: 77%
Barometer: 1015.2 hPa
Clouds: Mostly cloudy
Visibility: 16 km
Cloud details: Few Clouds 152 m
Mostly cloudy 549 m
2022/07/04 14:11 KSFO 041411Z 15004KT 10SM FEW005 BKN018 16/12 A2998 RMK AO2 T01610117
KE16 - San Martin, California, USA
Distance from station: ESE 43km
Updated: 04/07/2022 16:15
Overcast
Overcast
 Wind from SSE
Wind: SSE 9 km/h
Temperature: 13°C
Dew Point: 9°C
Humidity: 77%
Barometer: 1016.6 hPa
Clouds: Overcast
Visibility: 16 km
Cloud details: Overcast 366 m
2022/07/04 14:15 KE16 041415Z AUTO 16005KT 10SM OVC012 13/09 A3002 RMK AO2
 
KWVI - Watsonville, California, USA
Distance from station: SSE 44km
Updated: 04/07/2022 15:53
Clear
Clear
 Wind from N
Wind: N 6 km/h
Temperature: 12°C
Dew Point: 9°C
Humidity: 82%
Barometer: 1015.9 hPa
Clouds: Clear
Visibility: 16 km
2022/07/04 13:53 KWVI 041353Z AUTO 35003KT 10SM CLR 12/09 A3000 RMK AO2 SLP159 T01170094
KHAF - Half Moon Bay, California, USA
Distance from station: WNW 50km
Updated: 04/07/2022 16:15
Overcast
Overcast
 Wind from S
Wind: S 7 km/h
Temperature: 14°C
Dew Point: 14°C
Humidity: 100%
Barometer: 1015.6 hPa
Clouds: Overcast
Visibility: 14 km
Cloud details: Mostly cloudy 396 m
Overcast 579 m
2022/07/04 14:15 KHAF 041415Z AUTO 19004KT 9SM BKN013 OVC019 14/14 A2999 RMK AO2
 
KHWD - Hayward, California, USA
Distance from station: N 44km
Updated: 04/07/2022 15:54
Overcast
Overcast
 Wind from SSE
Wind: SSE 9 km/h
Temperature: 15°C
Dew Point: 12°C
Humidity: 82%
Barometer: 1015.2 hPa
Clouds: Overcast
Visibility: 16 km
Cloud details: Overcast 366 m
2022/07/04 13:54 KHWD 041354Z 15005KT 10SM OVC012 15/12 A2998 RMK AO2 SLP162 T01500122
KLVK - Livermore, California, USA
Distance from station: NNE 51km
Updated: 04/07/2022 15:53
Overcast
Overcast
 Wind from SSW
Wind: SSW 9 km/h
Temperature: 15°C
Dew Point: 12°C
Humidity: 82%
Barometer: 1015.2 hPa
Clouds: Overcast
Visibility: 16 km
Cloud details: Overcast 396 m
2022/07/04 13:53 KLVK 041353Z 21005KT 10SM OVC013 15/12 A2998 RMK AO2 SLP147 T01500122